EGLCLEZG

Guest
Details From EGLC - London City
To LEZG - Zaragoza Ab
Flight Number -
Tags Generated
Created
Modified
Stats Distance 594 nm / 1,100 km
Max Altitude 0 ft / 0 m
Waypoints 4
Social Downloads 1
Likes 0
Share VATSIM

Download

Looking for another format? Having issues loading an existing format? Contact us
Advertisement - Login to hide

Notes

Generated

Route

EGLC ABSIE ZAR LEZG

ID Type Via Altitude Latitude Longitude Leg Dist Tot Dist Heading (true) Name
O EGLC APT - 0 ft / 0 m 51.50558˚ 0.04414˚ - 0 nm - -
ABSIE FIX - 0 ft / 0 m 46.58333˚ -0.45833˚ 296 nm 296 nm 184° / 184° -
ZAR VOR - 0 ft / 0 m 41.65789˚ -1.03086˚ 296 nm 593 nm 185° / 185° ZARAGOZA VOR-DME
O LEZG APT - 0 ft / 0 m 41.66906˚ -1.03983˚ 0 nm 593 nm 329° / 329° Zaragoza AB

Altitude Profile

Advertisement - Login to hide

Weather


0- 5 10 15 20 25 30 35+ Temperature / ° C

Clouds and Precipitation
Forecast for 2018-05-24 06:00 UTC. Updated 2 hours ago

Ground ~20,000 ft ~40,000 ft Winds

EGLC

Details ICAO EGLC (LCY)
Name London City
Region United Kingdom
Timezone Europe/London (UTC+1.0)
Stats Elevation 19 ft / 6 m (AMSL)
Location 51.505231° 0.055175°
Runways 1
Magnetic Variation 0.320° W

METAR

EGLC 240650Z AUTO 36005KT 290V080 6000 -RA SCT007/// BKN027/// //////TCU 12/11 Q1021

Decode

TAF

Not found

Departure Runways

ID Width Length Bearing (true) Bearing (mag) Surface Threshold Offset Overrun Length
09 98 ft / 30 m 4,931 ft / 1,503 m 92.89° 93.21° Concrete 322 ft / 98 m 164 ft / 50 m
27 98 ft / 30 m 4,931 ft / 1,503 m 272.91° 273.23° Concrete 243 ft / 74 m 279 ft / 85 m

LEZG

Details ICAO LEZG (ZAZ)
Name Zaragoza AB
Region Spain
Timezone Europe/Madrid (UTC+2.0)
Stats Elevation 862 ft / 263 m (AMSL)
Location 41.667030° -1.043559°
Runways 2
Magnetic Variation 0.041° E

METAR

LEZG 240700Z 06004KT 020V090 9999 FEW015 SCT040 19/16 Q1017

Decode

TAF

TAF LEZG 240500Z 2406/2506 11007KT 9999 SCT020 TX31/2414Z TN16/2406Z PROB30 TEMPO 2414/2420 TSRA SCT040 FEW060CB

Decode

Destination Runways

ID Width Length Bearing (true) Bearing (mag) Surface Threshold Offset Overrun Length
12L 148 ft / 45 m 9,934 ft / 3,028 m 120.12° 120.08° Asphalt 0 ft / 0 m 984 ft / 300 m
12R 148 ft / 45 m 12,181 ft / 3,713 m 120.10° 120.06° Asphalt 0 ft / 0 m 984 ft / 300 m
30L 148 ft / 45 m 12,181 ft / 3,713 m 300.12° 300.08° Asphalt 0 ft / 0 m 984 ft / 300 m
30R 148 ft / 45 m 9,934 ft / 3,028 m 300.14° 300.10° Asphalt 0 ft / 0 m 607 ft / 185 m

Approach Navaids

Runway Type Ident Frequency Range Bearing (true) Bearing (mag) Slope Elevation
30R Localiser IZZA 109.50 MHz 18 nm / 33 km 300.12° 300.07° - 862 ft / 263 m (AMSL)
30R Glidescope IZZA 109.50 MHz 10 nm / 19 km 300.13° 300.09° 2.50° 862 ft / 263 m (AMSL)